Time;durP1;ratioP1;P1;durP2;ratioP2;P2;SDS_P1;SDS_P2;PMS_P1;PMS_P2;Temp;Humidity;BMP_temperature;BMP_pressure;BME280_temperature;BME280_humidity;BME280_pressure;Samples;Min_cycle;Max_cycle;Signal;HPM_P1;HPM_P2
2022/08/05 00:01:19;;;;;;;4.30;2.85;;;24.50;86.50;;;;;;5050426;28;20440;-79
2022/08/05 00:03:46;;;;;;;4.45;2.70;;;24.40;91.30;;;;;;5044693;28;20043;-79
2022/08/05 00:06:12;;;;;;;3.75;2.90;;;24.20;89.70;;;;;;5046965;28;20017;-80
2022/08/05 00:08:37;;;;;;;4.25;3.28;;;24.10;86.50;;;;;;5039043;28;20044;-79
2022/08/05 00:11:09;;;;;;;4.43;3.30;;;24.00;88.40;;;;;;5055530;28;20060;-81
2022/08/05 00:13:37;;;;;;;6.82;3.92;;;24.00;90.80;;;;;;5044331;28;20107;-80
2022/08/05 00:16:03;;;;;;;9.27;3.25;;;23.90;91.30;;;;;;5045740;28;20056;-80
2022/08/05 00:18:29;;;;;;;4.25;2.83;;;23.90;92.00;;;;;;5041400;28;20024;-79
2022/08/05 00:20:54;;;;;;;4.72;3.20;;;23.80;91.10;;;;;;5044612;28;20039;-80
2022/08/05 00:23:21;;;;;;;3.58;3.00;;;23.70;91.60;;;;;;5051211;28;20087;-78
2022/08/05 00:25:47;;;;;;;5.25;3.03;;;23.70;93.50;;;;;;5047449;28;20033;-80
2022/08/05 00:28:13;;;;;;;3.75;2.72;;;23.60;92.30;;;;;;5044408;28;20039;-81
2022/08/05 00:30:39;;;;;;;3.97;3.08;;;23.60;93.60;;;;;;5046594;28;20107;-81
2022/08/05 00:33:04;;;;;;;3.67;2.88;;;23.50;93.30;;;;;;5045922;28;20128;-82
2022/08/05 00:35:29;;;;;;;4.15;2.70;;;23.50;92.90;;;;;;5047236;28;20059;-81
2022/08/05 00:37:55;;;;;;;4.72;3.17;;;23.40;95.20;;;;;;5046921;28;20079;-81
2022/08/05 00:40:22;;;;;;;4.05;2.75;;;23.40;93.30;;;;;;5044022;28;20120;-80
2022/08/05 00:42:48;;;;;;;3.72;2.70;;;23.30;94.70;;;;;;5053626;28;20020;-81
2022/08/05 00:45:13;;;;;;;3.35;2.80;;;23.30;92.20;;;;;;5052440;28;20082;-80
2022/08/05 00:47:40;;;;;;;5.32;3.22;;;23.30;93.70;;;;;;5047523;28;20025;-81
2022/08/05 00:50:07;;;;;;;3.60;2.60;;;23.20;95.40;;;;;;5045283;28;20411;-80
2022/08/05 00:52:32;;;;;;;3.42;2.80;;;23.20;95.40;;;;;;5045248;28;20063;-79
2022/08/05 00:54:58;;;;;;;4.68;2.88;;;23.10;95.10;;;;;;5047188;28;20060;-78
2022/08/05 00:57:23;;;;;;;3.63;2.67;;;23.00;94.00;;;;;;5047781;28;20039;-79
2022/08/05 00:59:49;;;;;;;4.80;3.15;;;23.00;95.90;;;;;;5041261;28;20352;-79
2022/08/05 01:02:14;;;;;;;5.07;2.78;;;23.00;96.30;;;;;;5047193;28;20099;-78
2022/08/05 01:04:40;;;;;;;3.20;2.70;;;23.00;92.10;;;;;;5048422;28;20379;-80
2022/08/05 01:07:06;;;;;;;3.45;2.80;;;23.10;90.70;;;;;;5051599;28;20070;-79
2022/08/05 01:09:31;;;;;;;3.95;3.13;;;23.30;90.90;;;;;;5041231;28;20032;-79
2022/08/05 01:12:01;;;;;;;6.40;2.95;;;23.30;91.40;;;;;;5048512;28;20033;-80
2022/08/05 01:14:53;;;;;;;2.95;2.40;;;23.30;91.90;;;;;;5052791;28;20039;-79
2022/08/05 01:17:29;;;;;;;5.97;2.85;;;23.30;93.70;;;;;;5048920;28;20090;-80
2022/08/05 01:20:12;;;;;;;3.45;2.75;;;23.20;94.60;;;;;;5045428;28;20036;-81
2022/08/05 01:23:12;;;;;;;4.63;2.85;;;23.10;93.10;;;;;;5045175;28;20612;-79
2022/08/05 01:26:02;;;;;;;3.03;2.35;;;23.10;94.80;;;;;;5039938;28;20076;-79
2022/08/05 01:28:42;;;;;;;3.50;2.70;;;23.00;94.50;;;;;;5052707;28;20034;-80
2022/08/05 01:31:31;;;;;;;3.83;2.93;;;23.00;93.70;;;;;;5049469;28;20024;-79
2022/08/05 01:34:01;;;;;;;3.17;2.65;;;23.00;93.40;;;;;;5044603;28;20025;-79
2022/08/05 01:36:31;;;;;;;4.38;2.78;;;23.00;94.30;;;;;;5044139;28;20094;-78
2022/08/05 01:38:58;;;;;;;3.00;2.50;;;23.00;94.10;;;;;;5058638;28;20163;-81
2022/08/05 01:41:26;;;;;;;3.90;2.42;;;23.00;93.80;;;;;;5048984;28;20482;-82
2022/08/05 01:43:53;;;;;;;3.22;2.72;;;23.00;94.20;;;;;;5049060;28;20025;-81
2022/08/05 01:46:20;;;;;;;3.15;2.85;;;23.00;95.10;;;;;;5048290;28;20021;-80
2022/08/05 01:48:46;;;;;;;4.40;2.50;;;22.90;95.50;;;;;;5046364;28;20056;-80
2022/08/05 01:51:14;;;;;;;3.30;2.72;;;23.00;95.50;;;;;;5040395;28;20044;-80
2022/08/05 01:53:40;;;;;;;2.95;2.17;;;22.90;95.40;;;;;;5048656;28;20024;-79
2022/08/05 01:56:08;;;;;;;3.40;2.33;;;22.90;95.70;;;;;;5047206;28;20617;-79
2022/08/05 01:58:35;;;;;;;3.47;2.60;;;22.90;95.80;;;;;;5052331;28;20078;-80
2022/08/05 02:01:02;;;;;;;3.22;2.45;;;22.90;95.90;;;;;;5044729;28;20092;-80
2022/08/05 02:03:33;;;;;;;3.85;2.40;;;22.80;96.50;;;;;;5046888;28;20111;-79
2022/08/05 02:06:01;;;;;;;6.20;2.93;;;22.80;96.40;;;;;;5052529;28;20045;-79
2022/08/05 02:08:26;;;;;;;2.50;2.22;;;22.80;96.80;;;;;;5053205;28;20123;-79
2022/08/05 02:10:58;;;;;;;3.17;2.28;;;22.80;97.80;;;;;;5045624;28;20035;-79
2022/08/05 02:13:31;;;;;;;;;;;22.70;97.50;;;;;;5055946;28;20418;-79
2022/08/05 02:16:04;;;;;;;6.78;2.28;;;22.50;97.70;;;;;;5041757;28;19959;-81
2022/08/05 02:18:38;;;;;;;2.63;1.98;;;22.50;99.20;;;;;;5042002;28;20121;-79
2022/08/05 02:21:10;;;;;;;3.30;2.30;;;22.50;99.50;;;;;;5049048;28;20529;-80
2022/08/05 02:23:39;;;;;;;2.42;1.83;;;22.50;98.80;;;;;;5048245;28;20036;-80
2022/08/05 02:26:08;;;;;;;3.28;2.28;;;22.50;98.90;;;;;;5050723;28;20025;-80
2022/08/05 02:28:38;;;;;;;2.92;2.28;;;22.50;98.90;;;;;;5049328;28;20043;-80
2022/08/05 02:31:07;;;;;;;2.63;2.17;;;22.50;99.90;;;;;;5041872;28;20048;-79
2022/08/05 02:33:40;;;;;;;2.58;1.95;;;22.50;99.90;;;;;;5043209;28;20033;-80
2022/08/05 02:36:11;;;;;;;2.72;2.05;;;22.40;99.90;;;;;;5052821;28;20040;-80
2022/08/05 02:38:37;;;;;;;3.90;2.15;;;22.40;99.90;;;;;;5044173;28;21137;-80
2022/08/05 02:41:03;;;;;;;4.13;2.97;;;22.40;99.90;;;;;;5044622;28;20033;-79
2022/08/05 02:43:29;;;;;;;3.10;2.38;;;22.30;99.90;;;;;;5040501;28;20040;-79
2022/08/05 02:45:55;;;;;;;2.00;1.80;;;22.30;99.90;;;;;;5047631;28;20112;-80
2022/08/05 02:48:22;;;;;;;2.15;1.92;;;22.30;99.90;;;;;;5050554;28;20124;-81
2022/08/05 02:50:50;;;;;;;2.60;2.20;;;22.30;99.90;;;;;;5051558;28;21987;-80
2022/08/05 02:53:17;;;;;;;2.80;2.03;;;22.30;99.90;;;;;;5041787;28;20045;-80
2022/08/05 02:55:44;;;;;;;3.88;2.35;;;22.20;99.90;;;;;;5049402;28;20033;-78
2022/08/05 02:58:13;;;;;;;2.28;2.08;;;22.20;99.90;;;;;;5046836;28;20098;-78
2022/08/05 03:00:40;;;;;;;3.08;2.20;;;22.20;99.90;;;;;;5041552;28;20197;-78
2022/08/05 03:03:06;;;;;;;4.55;2.60;;;22.20;99.90;;;;;;5044693;28;20124;-79
2022/08/05 03:05:32;;;;;;;2.63;2.15;;;22.10;99.90;;;;;;5048845;28;20112;-80
2022/08/05 03:07:58;;;;;;;2.70;2.10;;;22.10;99.90;;;;;;5053380;28;20127;-79
2022/08/05 03:10:24;;;;;;;2.13;1.92;;;22.10;99.90;;;;;;5045356;28;20108;-79
2022/08/05 03:12:50;;;;;;;2.25;1.80;;;22.10;99.90;;;;;;5050384;28;20649;-80
2022/08/05 03:15:15;;;;;;;2.67;2.22;;;22.00;99.90;;;;;;5051115;28;20024;-79
2022/08/05 03:17:41;;;;;;;2.97;2.10;;;22.00;99.90;;;;;;5047536;28;20147;-79
2022/08/05 03:20:07;;;;;;;1.95;1.80;;;22.00;99.90;;;;;;5050516;28;20484;-79
2022/08/05 03:22:32;;;;;;;2.88;2.08;;;22.00;99.90;;;;;;5051352;28;20033;-79
2022/08/05 03:24:59;;;;;;;1.95;1.77;;;22.00;99.90;;;;;;5047906;28;20606;-79
2022/08/05 03:27:25;;;;;;;5.35;1.98;;;22.00;99.90;;;;;;5047776;28;20053;-78
2022/08/05 03:29:50;;;;;;;2.17;1.77;;;22.00;99.90;;;;;;5045876;28;20036;-78
2022/08/05 03:32:18;;;;;;;3.15;1.88;;;22.10;99.90;;;;;;5045660;28;20043;-78
2022/08/05 03:34:44;;;;;;;2.17;1.85;;;22.00;99.90;;;;;;5045890;28;20068;-78
2022/08/05 03:37:11;;;;;;;5.70;2.30;;;22.10;99.90;;;;;;5043654;28;20571;-79
2022/08/05 03:39:37;;;;;;;2.35;1.60;;;22.10;99.90;;;;;;5054379;28;20032;-78
2022/08/05 03:42:03;;;;;;;2.90;2.20;;;22.10;99.90;;;;;;5058541;28;20016;-77
2022/08/05 03:44:28;;;;;;;1.80;1.70;;;22.10;99.90;;;;;;5043711;28;21026;-78
2022/08/05 03:46:54;;;;;;;2.20;2.00;;;22.20;99.90;;;;;;5047112;28;20016;-77
2022/08/05 03:49:19;;;;;;;2.45;1.90;;;22.20;99.90;;;;;;5044663;28;20025;-77
2022/08/05 03:51:57;;;;;;;2.15;1.95;;;22.20;99.90;;;;;;5042647;28;20042;-77
2022/08/05 03:54:34;;;;;;;2.15;1.90;;;22.20;99.90;;;;;;5044701;28;20479;-78
2022/08/05 03:57:02;;;;;;;2.25;1.92;;;22.20;99.90;;;;;;5038106;28;20016;-77
2022/08/05 03:59:39;;;;;;;3.15;2.10;;;22.20;99.90;;;;;;5042534;28;20032;-77
2022/08/05 04:02:06;;;;;;;1.92;1.77;;;22.20;99.90;;;;;;5043975;28;20067;-77
2022/08/05 04:04:32;;;;;;;2.17;1.88;;;22.20;99.90;;;;;;5048755;28;20013;-77
2022/08/05 04:07:00;;;;;;;3.03;2.33;;;22.20;99.90;;;;;;5040439;28;20020;-78
2022/08/05 04:09:27;;;;;;;3.45;2.05;;;22.30;99.90;;;;;;5038497;28;20033;-77
2022/08/05 04:11:54;;;;;;;3.30;2.00;;;22.30;99.90;;;;;;5053258;28;20119;-77
2022/08/05 04:14:20;;;;;;;2.95;2.15;;;22.30;99.90;;;;;;5047800;28;20060;-77
2022/08/05 04:16:46;;;;;;;2.65;2.20;;;22.30;99.90;;;;;;5047396;28;20077;-77
2022/08/05 04:19:12;;;;;;;2.10;1.90;;;22.20;99.90;;;;;;5040942;28;20440;-77
2022/08/05 04:21:38;;;;;;;4.15;2.30;;;22.30;99.90;;;;;;5045582;28;20031;-77
2022/08/05 04:24:04;;;;;;;2.88;2.58;;;22.40;99.90;;;;;;5043135;28;20019;-77
2022/08/05 04:26:30;;;;;;;2.63;2.20;;;22.40;99.90;;;;;;5043116;28;20032;-77
2022/08/05 04:28:55;;;;;;;2.95;2.47;;;22.50;99.90;;;;;;5043236;28;20028;-79
2022/08/05 04:31:21;;;;;;;3.00;2.13;;;22.50;99.90;;;;;;5045403;28;20042;-79
2022/08/05 04:33:47;;;;;;;4.07;2.13;;;22.60;99.90;;;;;;5048058;28;20476;-79
2022/08/05 04:36:14;;;;;;;2.38;1.92;;;22.70;99.90;;;;;;5051158;28;20059;-78
2022/08/05 04:38:41;;;;;;;2.10;1.90;;;22.70;99.90;;;;;;5040253;28;20047;-78
2022/08/05 04:41:06;;;;;;;2.88;2.20;;;22.80;99.90;;;;;;5046294;28;20028;-79
2022/08/05 04:43:32;;;;;;;3.13;2.60;;;22.90;99.90;;;;;;5049860;28;20047;-79
2022/08/05 04:45:57;;;;;;;2.80;1.95;;;23.10;99.90;;;;;;5050968;28;20020;-79
2022/08/05 04:48:23;;;;;;;2.40;2.08;;;23.20;99.90;;;;;;5047017;28;20056;-79
2022/08/05 04:50:48;;;;;;;2.90;1.85;;;23.30;99.90;;;;;;5048452;28;20087;-78
2022/08/05 04:53:16;;;;;;;2.50;2.20;;;23.40;99.90;;;;;;5048557;28;20506;-79
2022/08/05 04:55:42;;;;;;;3.25;2.15;;;23.40;99.90;;;;;;5054432;28;20111;-79
2022/08/05 04:58:10;;;;;;;2.30;2.10;;;23.50;99.90;;;;;;5050749;28;20025;-80
2022/08/05 05:00:36;;;;;;;3.35;2.38;;;23.40;99.90;;;;;;5052040;28;20029;-79
2022/08/05 05:03:04;;;;;;;2.30;2.10;;;23.50;99.90;;;;;;5042732;28;20021;-79
2022/08/05 05:05:29;;;;;;;2.58;2.33;;;23.50;99.90;;;;;;5045994;28;20028;-79
2022/08/05 05:08:00;;;;;;;2.63;2.42;;;23.60;99.90;;;;;;5051173;28;20032;-79
2022/08/05 05:10:27;;;;;;;1.83;1.63;;;23.60;99.90;;;;;;5044959;28;20104;-78
2022/08/05 05:12:52;;;;;;;2.47;2.10;;;23.60;99.90;;;;;;5051061;28;20025;-79
2022/08/05 05:15:18;;;;;;;2.33;1.88;;;23.70;99.90;;;;;;5050629;28;20138;-78
2022/08/05 05:17:43;;;;;;;2.85;2.00;;;23.80;99.90;;;;;;5045638;28;20049;-78
2022/08/05 05:20:10;;;;;;;2.20;1.98;;;23.90;99.90;;;;;;5048083;28;20029;-78
2022/08/05 05:22:35;;;;;;;3.08;2.10;;;24.00;99.90;;;;;;5059474;28;20483;-80
2022/08/05 05:25:02;;;;;;;2.20;1.73;;;24.00;99.90;;;;;;5045463;28;20059;-78
2022/08/05 05:27:33;;;;;;;2.83;1.90;;;24.00;99.90;;;;;;5051126;28;20025;-79
2022/08/05 05:29:59;;;;;;;3.87;2.43;;;24.10;99.90;;;;;;5053012;28;20406;-83
2022/08/05 05:32:24;;;;;;;5.30;2.20;;;24.20;99.90;;;;;;5044820;28;20040;-88
2022/08/05 05:34:50;;;;;;;4.90;2.25;;;24.30;99.90;;;;;;5051272;28;20028;-77
2022/08/05 05:37:15;;;;;;;3.25;2.00;;;24.30;99.60;;;;;;5043490;28;20036;-77
2022/08/05 05:39:41;;;;;;;3.50;2.00;;;24.40;99.40;;;;;;5042705;28;20643;-83
2022/08/05 05:42:07;;;;;;;2.67;2.30;;;24.40;99.70;;;;;;5045764;28;20028;-86
2022/08/05 05:44:33;;;;;;;3.10;2.20;;;24.50;98.80;;;;;;5038147;28;20029;-79
2022/08/05 05:46:58;;;;;;;3.90;2.65;;;24.50;98.10;;;;;;5043548;28;20028;-81
2022/08/05 05:49:24;;;;;;;2.47;2.08;;;24.60;98.00;;;;;;5050245;28;20032;-81
2022/08/05 05:51:50;;;;;;;2.33;2.13;;;24.60;98.50;;;;;;5051812;28;20108;-85
2022/08/05 05:54:15;;;;;;;2.58;2.00;;;24.70;97.80;;;;;;5048747;28;20124;-82
2022/08/05 05:56:41;;;;;;;2.50;2.17;;;24.70;97.80;;;;;;5043828;28;20029;-84
2022/08/05 05:59:07;;;;;;;6.00;2.47;;;24.70;97.40;;;;;;5047747;28;20052;-82
2022/08/05 06:01:34;;;;;;;3.75;2.63;;;24.60;97.90;;;;;;5046535;28;20484;-80
2022/08/05 06:03:59;;;;;;;2.85;2.28;;;24.70;97.60;;;;;;5062517;28;20108;-76
2022/08/05 06:06:24;;;;;;;1.77;1.67;;;24.70;97.10;;;;;;5046552;28;20119;-80
2022/08/05 06:08:50;;;;;;;1.75;1.65;;;24.80;97.30;;;;;;5046200;28;20032;-81
2022/08/05 06:11:15;;;;;;;3.10;2.13;;;24.80;96.50;;;;;;5047492;28;20077;-76
2022/08/05 06:13:47;;;;;;;2.38;1.95;;;24.80;96.20;;;;;;5042529;28;20151;-79
2022/08/05 06:16:12;;;;;;;2.00;1.63;;;24.80;96.90;;;;;;5045199;28;20040;-76
2022/08/05 06:18:38;;;;;;;3.60;2.15;;;24.70;97.00;;;;;;5046195;28;20404;-76
2022/08/05 06:21:04;;;;;;;2.85;2.08;;;24.70;96.50;;;;;;5041187;28;20028;-78
2022/08/05 06:23:30;;;;;;;3.10;2.22;;;24.60;97.80;;;;;;5046015;28;20115;-82
2022/08/05 06:25:56;;;;;;;2.83;1.77;;;24.50;98.20;;;;;;5054929;28;20256;-79
2022/08/05 06:28:21;;;;;;;2.42;2.00;;;24.50;97.80;;;;;;5046871;28;20491;-77
2022/08/05 06:30:47;;;;;;;2.00;1.77;;;24.50;98.40;;;;;;5049647;28;20020;-83
2022/08/05 06:33:12;;;;;;;2.17;1.50;;;24.60;98.60;;;;;;5049941;28;20021;-83
2022/08/05 06:35:38;;;;;;;2.38;1.90;;;24.70;97.20;;;;;;5044924;28;20789;-84
2022/08/05 06:38:03;;;;;;;2.47;1.52;;;24.80;97.50;;;;;;5042635;28;20469;-88
2022/08/05 06:40:29;;;;;;;2.20;1.63;;;24.90;97.60;;;;;;5050618;28;20036;-83
2022/08/05 06:42:54;;;;;;;2.05;1.70;;;25.10;96.80;;;;;;5045367;28;20025;-85
2022/08/05 06:45:21;;;;;;;4.10;2.00;;;25.20;97.40;;;;;;5040998;28;20083;-83
2022/08/05 06:47:46;;;;;;;2.05;1.73;;;25.10;97.70;;;;;;5054756;28;20021;-87
2022/08/05 06:50:12;;;;;;;2.15;1.70;;;25.10;95.90;;;;;;5055064;28;20077;-87
2022/08/05 06:52:37;;;;;;;1.90;1.70;;;25.20;95.50;;;;;;5050917;28;20029;-86
2022/08/05 06:55:04;;;;;;;2.08;1.83;;;25.30;96.20;;;;;;5049391;28;20380;-86
2022/08/05 06:57:29;;;;;;;1.65;1.55;;;25.20;96.90;;;;;;5052980;28;20032;-86
2022/08/05 06:59:55;;;;;;;1.80;1.70;;;25.20;97.70;;;;;;5043704;28;20024;-85
2022/08/05 07:02:20;;;;;;;1.65;1.27;;;25.20;97.40;;;;;;5041179;28;20044;-90
2022/08/05 07:04:46;;;;;;;1.85;1.60;;;25.30;94.50;;;;;;5051062;28;20037;-88
2022/08/05 07:07:11;;;;;;;1.73;1.50;;;25.40;96.30;;;;;;5061489;28;20771;-90
2022/08/05 07:09:37;;;;;;;1.60;1.25;;;25.50;94.50;;;;;;5058577;28;20024;-86
2022/08/05 07:12:02;;;;;;;1.90;1.50;;;25.60;94.70;;;;;;5047364;28;20025;-84
2022/08/05 07:17:12;;;;;;;2.40;1.40;;;25.80;94.10;;;;;;5046425;28;20440;-87
2022/08/05 07:19:38;;;;;;;4.05;1.85;;;25.90;94.70;;;;;;5045256;28;20100;-87
2022/08/05 07:22:03;;;;;;;1.85;1.58;;;26.00;95.40;;;;;;5042121;28;20033;-86
2022/08/05 07:24:29;;;;;;;2.67;2.10;;;25.80;92.80;;;;;;5043355;28;20544;-84
2022/08/05 07:26:55;;;;;;;1.85;1.67;;;25.90;94.70;;;;;;5042197;28;20029;-84
2022/08/05 07:29:20;;;;;;;4.25;1.73;;;25.90;95.00;;;;;;5047872;28;20028;-85
2022/08/05 07:31:46;;;;;;;1.90;1.60;;;25.80;93.20;;;;;;5045724;28;20075;-83
2022/08/05 07:34:11;;;;;;;1.98;1.65;;;25.70;95.00;;;;;;5050311;28;20031;-85
2022/08/05 07:36:37;;;;;;;2.00;1.20;;;25.90;93.50;;;;;;5045198;28;20056;-84
2022/08/05 07:39:05;;;;;;;2.22;1.75;;;26.00;95.60;;;;;;5047756;28;20036;-81
2022/08/05 07:41:32;;;;;;;2.33;1.60;;;25.90;93.40;;;;;;5045154;28;20053;-78
2022/08/05 07:43:58;;;;;;;1.60;1.50;;;25.90;95.80;;;;;;5044825;28;20087;-78
2022/08/05 07:46:29;;;;;;;1.60;1.50;;;25.70;95.80;;;;;;5039957;28;20033;-78
2022/08/05 07:48:57;;;;;;;2.20;1.42;;;25.60;96.20;;;;;;5040477;28;20494;-90
2022/08/05 07:51:23;;;;;;;2.15;1.70;;;25.40;96.10;;;;;;5044898;28;20399;-84
2022/08/05 07:53:49;;;;;;;2.10;1.60;;;25.20;97.60;;;;;;5047393;28;20028;-79
2022/08/05 07:56:14;;;;;;;2.30;1.83;;;25.10;96.90;;;;;;5042229;28;20071;-79
2022/08/05 07:58:40;;;;;;;2.95;1.70;;;24.90;97.50;;;;;;5056567;28;20430;-80
2022/08/05 08:01:05;;;;;;;2.50;1.77;;;24.80;99.10;;;;;;5049340;28;20027;-82
2022/08/05 08:03:31;;;;;;;3.38;1.83;;;24.80;98.40;;;;;;5047146;28;20111;-82
2022/08/05 08:05:56;;;;;;;7.28;1.88;;;24.70;98.00;;;;;;5048414;28;20031;-85
2022/08/05 08:08:22;;;;;;;2.55;1.27;;;24.70;97.50;;;;;;5052673;28;20480;-84
2022/08/05 08:10:47;;;;;;;1.92;1.40;;;24.70;97.70;;;;;;5043131;28;20040;-78
2022/08/05 08:13:13;;;;;;;1.77;1.27;;;24.70;99.70;;;;;;5045645;28;20036;-82
2022/08/05 08:15:38;;;;;;;2.17;1.75;;;24.80;99.90;;;;;;5041541;28;20013;-81
2022/08/05 08:18:04;;;;;;;1.30;1.20;;;24.70;99.90;;;;;;5042329;28;20734;-80
2022/08/05 08:20:29;;;;;;;2.03;1.50;;;24.70;98.70;;;;;;5045796;28;20130;-81
2022/08/05 08:22:58;;;;;;;1.27;1.20;;;24.70;97.60;;;;;;5041732;28;20494;-78
2022/08/05 08:25:24;;;;;;;1.40;1.30;;;24.80;98.40;;;;;;5047215;28;20040;-85
2022/08/05 08:27:49;;;;;;;1.60;1.33;;;24.80;97.50;;;;;;5044380;28;20024;-80
2022/08/05 08:30:15;;;;;;;3.45;1.40;;;24.90;99.90;;;;;;5045803;28;20034;-84
2022/08/05 08:32:41;;;;;;;2.72;1.50;;;25.00;99.90;;;;;;5043314;28;20037;-81
2022/08/05 08:35:07;;;;;;;1.52;1.10;;;25.10;99.90;;;;;;5043748;28;20536;-79
2022/08/05 08:37:33;;;;;;;1.58;1.20;;;25.20;96.90;;;;;;5047403;28;20024;-77
2022/08/05 08:39:59;;;;;;;1.50;1.17;;;25.30;97.70;;;;;;5048568;28;20040;-77
2022/08/05 08:42:25;;;;;;;2.05;1.70;;;25.40;96.40;;;;;;5046938;28;20356;-84
2022/08/05 08:44:54;;;;;;;2.45;1.33;;;25.50;97.60;;;;;;5044326;28;20469;-77
2022/08/05 08:47:23;;;;;;;0.98;0.95;;;25.30;97.90;;;;;;5045254;28;20044;-77
2022/08/05 08:49:51;;;;;;;2.67;1.60;;;25.10;98.50;;;;;;5054509;28;20049;-80
2022/08/05 08:52:22;;;;;;;1.25;1.15;;;25.00;99.30;;;;;;5043094;28;20039;-80
2022/08/05 08:54:53;;;;;;;1.25;1.15;;;24.90;99.80;;;;;;5043035;28;20082;-80
2022/08/05 08:57:18;;;;;;;2.45;1.35;;;24.90;99.90;;;;;;5042641;28;20036;-81
2022/08/05 08:59:45;;;;;;;1.15;1.10;;;25.10;99.90;;;;;;5050881;28;20024;-79
2022/08/05 09:02:11;;;;;;;2.03;1.50;;;25.00;99.30;;;;;;5044970;28;20107;-81
2022/08/05 09:04:37;;;;;;;4.30;2.80;;;24.90;99.90;;;;;;5046398;28;20017;-80
2022/08/05 09:07:07;;;;;;;17.30;7.75;;;24.80;99.90;;;;;;5049380;28;20422;-81
2022/08/05 09:09:33;;;;;;;2.20;1.70;;;24.60;99.90;;;;;;5049478;28;20025;-86
2022/08/05 09:11:59;;;;;;;1.42;1.27;;;24.60;99.90;;;;;;5052958;28;20143;-85
2022/08/05 09:14:25;;;;;;;1.98;1.52;;;24.70;99.90;;;;;;5045188;28;20119;-80
2022/08/05 09:16:51;;;;;;;1.20;1.10;;;24.90;99.90;;;;;;5044448;28;20062;-78
2022/08/05 09:19:16;;;;;;;1.83;1.50;;;25.10;99.90;;;;;;5043142;28;20470;-78
2022/08/05 09:21:42;;;;;;;1.83;1.55;;;25.10;99.90;;;;;;5045851;28;20024;-79
2022/08/05 09:24:08;;;;;;;1.60;1.40;;;25.20;99.90;;;;;;5049693;28;20033;-80
2022/08/05 09:26:35;;;;;;;1.48;1.30;;;25.50;99.90;;;;;;5046856;28;20359;-79
2022/08/05 09:29:04;;;;;;;1.50;1.40;;;25.50;99.90;;;;;;5051859;28;20039;-82
2022/08/05 09:31:30;;;;;;;1.75;1.55;;;25.80;99.90;;;;;;5042110;28;20021;-77
2022/08/05 09:33:58;;;;;;;1.40;1.30;;;25.90;99.90;;;;;;5058303;28;20062;-83
2022/08/05 09:36:50;;;;;;;1.20;1.10;;;26.00;99.40;;;;;;5046055;28;20389;-78
2022/08/05 09:39:16;;;;;;;1.55;1.42;;;25.80;98.00;;;;;;5047149;28;20556;-82
2022/08/05 09:41:59;;;;;;;1.95;1.23;;;25.50;97.20;;;;;;5041430;28;20029;-89
2022/08/05 09:44:39;;;;;;;2.40;1.60;;;25.30;99.80;;;;;;5046558;28;20063;-83
2022/08/05 09:47:16;;;;;;;3.55;1.65;;;25.40;99.40;;;;;;5052933;28;20173;-84
2022/08/05 09:49:42;;;;;;;2.40;1.20;;;25.50;98.90;;;;;;5047789;28;20499;-83
2022/08/05 09:52:26;;;;;;;4.47;1.60;;;25.40;99.00;;;;;;5045165;28;20071;-80
2022/08/05 09:55:00;;;;;;;1.50;1.20;;;25.20;99.90;;;;;;5049712;28;20065;-80
2022/08/05 09:57:29;;;;;;;2.67;1.55;;;25.10;99.90;;;;;;5049580;28;20044;-74
2022/08/05 09:59:59;;;;;;;2.97;1.98;;;25.00;99.90;;;;;;5046283;28;20120;-80
2022/08/05 10:02:42;;;;;;;2.30;1.48;;;24.40;99.90;;;;;;5047077;28;20104;-78
2022/08/05 10:05:13;;;;;;;4.25;1.90;;;24.30;99.90;;;;;;5046123;28;20029;-78
2022/08/05 10:11:16;;;;;;;2.70;1.60;;;24.00;99.90;;;;;;5031623;28;20067;-77
2022/08/05 10:13:42;;;;;;;1.38;1.27;;;23.70;99.90;;;;;;5045037;28;20377;-76
2022/08/05 10:16:35;;;;;;;1.67;1.52;;;23.70;99.90;;;;;;5056412;28;20029;-79
2022/08/05 10:19:01;;;;;;;2.00;1.30;;;23.90;99.90;;;;;;5051576;28;20056;-78
2022/08/05 10:21:27;;;;;;;1.92;1.27;;;24.30;99.90;;;;;;5046174;28;20035;-78
2022/08/05 10:23:54;;;;;;;1.60;1.45;;;24.50;99.90;;;;;;5051073;28;20070;-78
2022/08/05 10:26:20;;;;;;;1.90;1.58;;;24.40;99.90;;;;;;5063013;28;20020;-77
2022/08/05 10:28:46;;;;;;;1.90;1.77;;;24.50;99.90;;;;;;5064315;28;20028;-81
2022/08/05 10:31:14;;;;;;;1.77;1.48;;;24.50;99.90;;;;;;5060064;28;20032;-80
2022/08/05 10:33:40;;;;;;;2.13;1.40;;;24.70;99.90;;;;;;5065136;28;20025;-80
2022/08/05 10:36:06;;;;;;;1.42;1.27;;;24.90;99.90;;;;;;5060292;28;20049;-81
2022/08/05 10:38:34;;;;;;;1.52;1.38;;;24.90;99.90;;;;;;5061268;28;20036;-82
2022/08/05 10:40:59;;;;;;;2.75;1.95;;;24.80;99.90;;;;;;5065581;28;20058;-80
2022/08/05 10:43:47;;;;;;;1.60;1.50;;;24.80;99.90;;;;;;5061633;28;20013;-80
2022/08/05 10:46:15;;;;;;;1.40;1.30;;;24.90;99.90;;;;;;5058260;28;20033;-79
2022/08/05 10:48:43;;;;;;;1.67;1.58;;;25.40;99.90;;;;;;5065776;28;20024;-78
2022/08/05 10:51:14;;;;;;;1.90;1.52;;;25.60;99.90;;;;;;5057907;28;20498;-78
2022/08/05 10:53:52;;;;;;;2.55;1.67;;;25.50;99.90;;;;;;5064838;28;20115;-78
2022/08/05 10:56:26;;;;;;;2.05;1.80;;;25.30;99.90;;;;;;5061333;28;20048;-79
2022/08/05 10:58:54;;;;;;;5.43;1.42;;;25.30;99.90;;;;;;5063260;28;20506;-80
2022/08/05 11:01:30;;;;;;;2.72;1.58;;;25.50;99.90;;;;;;5053405;28;20021;-80
2022/08/05 11:04:11;;;;;;;8.13;1.85;;;25.90;99.90;;;;;;5046224;28;20028;-81
2022/08/05 11:07:05;;;;;;;2.97;2.10;;;26.10;99.90;;;;;;5062335;28;20032;-78
2022/08/05 11:09:53;;;;;;;1.42;1.23;;;26.30;99.90;;;;;;5051742;28;20135;-80
2022/08/05 11:12:35;;;;;;;1.33;1.02;;;26.30;99.90;;;;;;5049580;28;20017;-79
2022/08/05 11:15:06;;;;;;;1.88;1.13;;;26.40;97.80;;;;;;5039679;28;20037;-79
2022/08/05 11:17:37;;;;;;;1.10;1.00;;;26.30;94.40;;;;;;5054851;28;20033;-83
2022/08/05 11:20:08;;;;;;;1.90;1.13;;;26.20;95.00;;;;;;5056713;28;20029;-86
2022/08/05 11:22:39;;;;;;;1.35;1.15;;;26.30;95.30;;;;;;5069922;28;20029;-86
2022/08/05 11:30:57;;;;;;;2.95;1.73;;;;;;;;;;5081783;27;20392;-83
2022/08/05 11:33:30;;;;;;;1.60;1.30;;;;;;;;;;5064807;28;20112;-80
2022/08/05 11:35:56;;;;;;;17.70;5.63;;;;;;;;;;5042953;28;20031;-80
2022/08/05 11:38:34;;;;;;;1.30;1.20;;;;;;;;;;5056088;28;20033;-87
2022/08/05 11:41:02;;;;;;;1.85;1.60;;;;;;;;;;5056059;28;20040;-79
2022/08/05 11:43:29;;;;;;;1.42;1.30;;;;;;;;;;5065376;28;20382;-82
2022/08/05 11:45:55;;;;;;;1.55;1.45;;;;;;;;;;5060884;28;20369;-80
2022/08/05 11:48:21;;;;;;;1.40;1.30;;;;;;;;;;5061175;28;20032;-80
2022/08/05 11:50:48;;;;;;;2.42;1.60;;;;;;;;;;5052601;28;20028;-80
2022/08/05 11:53:14;;;;;;;2.10;1.90;;;;;;;;;;5052328;28;20559;-83
2022/08/05 11:55:59;;;;;;;2.08;1.40;;;;;;;;;;5045009;28;20420;-81
2022/08/05 11:58:29;;;;;;;1.30;1.20;;;;;;;;;;5040882;28;20033;-84
2022/08/05 12:01:21;;;;;;;1.40;1.30;;;;;;;;;;5038480;28;20078;-85
2022/08/05 12:03:56;;;;;;;2.08;1.50;;;;;;;;;;5037447;28;20109;-80
2022/08/05 12:06:30;;;;;;;10.02;1.60;;;;;;;;;;5035868;28;20232;-79
2022/08/05 12:08:57;;;;;;;4.32;1.73;;;;;;;;;;5028471;28;20554;-78
2022/08/05 12:11:24;;;;;;;1.85;1.40;;;;;;;;;;5030956;28;20055;-79
2022/08/05 12:13:57;;;;;;;1.80;1.52;;;;;;;;;;5034428;28;20354;-80
2022/08/05 12:16:24;;;;;;;8.90;2.92;;;;;;;;;;5034347;28;20029;-80
2022/08/05 12:18:50;;;;;;;1.63;1.50;;;;;;;;;;5032060;28;20033;-79
2022/08/05 12:21:18;;;;;;;1.88;1.50;;;;;;;;;;5036239;28;20548;-79
2022/08/05 12:23:53;;;;;;;2.38;1.33;;;;;;;;;;5035707;28;20116;-80
2022/08/05 12:26:19;;;;;;;1.45;1.00;;;;;;;;;;5034820;28;20384;-80
2022/08/05 12:28:45;;;;;;;1.55;1.30;;;;;;;;;;5031745;28;20041;-81
2022/08/05 12:31:11;;;;;;;3.70;1.80;;;;;;;;;;5035059;28;20025;-80
2022/08/05 12:33:37;;;;;;;1.58;1.48;;;;;;;;;;5030620;28;20013;-83
2022/08/05 12:36:03;;;;;;;2.80;1.80;;;;;;;;;;5036733;28;20135;-79
2022/08/05 12:38:29;;;;;;;1.30;1.20;;;;;;;;;;5036183;28;20487;-81
2022/08/05 12:40:58;;;;;;;1.70;1.55;;;;;;;;;;5032695;28;20530;-82
2022/08/05 12:43:24;;;;;;;1.73;1.60;;;;;;;;;;5019500;28;20030;-78
2022/08/05 12:45:54;;;;;;;2.35;1.60;;;;;;;;;;5019797;28;20088;-80
2022/08/05 12:48:20;;;;;;;4.10;1.10;;;;;;;;;;5018129;28;20021;-83
2022/08/05 12:51:08;;;;;;;2.75;1.40;;;;;;;;;;5017672;28;20025;-79
2022/08/05 12:53:39;;;;;;;1.40;1.30;;;;;;;;;;5025678;28;20179;-85
2022/08/05 12:56:14;;;;;;;1.55;1.40;;;;;;;;;;5021309;28;20915;-84
2022/08/05 12:58:40;;;;;;;1.38;1.27;;;;;;;;;;5026388;28;20029;-81
2022/08/05 13:01:06;;;;;;;1.65;1.48;;;;;;;;;;5026819;28;20026;-80
2022/08/05 13:03:36;;;;;;;1.40;1.30;;;;;;;;;;5014938;28;20083;-86
2022/08/05 13:06:02;;;;;;;1.70;1.23;;;;;;;;;;5017428;28;20810;-81
2022/08/05 13:08:31;;;;;;;1.55;1.45;;;;;;;;;;5012309;28;20026;-79
2022/08/05 13:11:00;;;;;;;1.20;1.10;;;;;;;;;;5013861;28;20141;-77
2022/08/05 13:13:27;;;;;;;1.63;1.45;;;;;;;;;;5021521;28;20375;-83
2022/08/05 13:15:53;;;;;;;1.92;1.52;;;;;;;;;;5028206;28;20096;-88
2022/08/05 13:18:20;;;;;;;1.70;1.40;;;;;;;;;;5014833;28;20053;-84
2022/08/05 13:20:46;;;;;;;3.05;2.00;;;;;;;;;;5021928;28;20064;-84